Es ist keine erhöhte Aufmerksamkeit aufgrund des Wetters notwendig.    Es gibt keine Warnungen.

Meine Webcam more information My webcam


Donnerradar more information blitzortung!


Regenradar more information rain snow radar



METAR-Meldungen aus der Umgebung

   
EDDH - Hamburg
Aktualisierung: 21-05-2019 06:20
Stark bewölkt  
Stark bewölkt  
   Wind: Norden 11.1 km/h
Wind: Norden 11.1 km/h
Temperatur: 15°C
Taupunkt: 14°C
Luftfeuchte: 94%
Luftdruck: 1005 hPa
Bewölkt: Stark bewölkt
Sichtbarkeit: More than 10 km
Bewölkung: leicht bewölkt 800 ft,
Stark bewölkt 1200 ft
EDDH 210420Z 36006KT 310V030 9999 FEW008 BKN012 15/14 Q1005 BECMG 4000 BR BKN007
EDHL - Lübeck
Aktualisierung: 20-05-2019 20:50
Nicht aktuell
Klar  
Klar  
   Wind: NNO 11.1 km/h
Wind: NNO 11.1 km/h
Temperatur: 16°C
Taupunkt: 14°C
Luftfeuchte: 88%
Luftdruck: 1005 hPa
Sichtbarkeit: More than 10 km
Bewölkung: Klar
EDHL 201850Z 03006KT CAVOK 16/14 Q1005
EHBK - Amsterdam
Aktualisierung: 21-05-2019 06:25
Nebel, Bewölkt  
Nebel, Bewölkt  
   Wind: WNW 13 km/h
Wind: WNW 13 km/h
Temperatur: 10°C
Gefühlt: 8°C
Taupunkt: 10°C
Luftfeuchte: 100%
Luftdruck: 1011 hPa
Bewölkt: Bewölkt
Sichtbarkeit: 2 km
Bewölkung: Bewölkt 200 ft
EHBK 210425Z AUTO 29007KT 200V340 1700 BR OVC002 10/10 Q1011 NOSIG
EBCV - Mons/Bergen
Aktualisierung: 21-05-2019 05:55
Bewölkt  
Bewölkt  
   Wind: NW 14.8 km/h
Wind: NW 14.8 km/h
Temperatur: 10°C
Gefühlt: 8°C
Taupunkt: 9°C
Luftfeuchte: 94%
Luftdruck: 1015 hPa
Bewölkt: Bewölkt
Sichtbarkeit: 6 km
Bewölkung: Bewölkt 900 ft
EBCV 210355Z AUTO 32008KT 6000 OVC009/// 10/09 Q1015 GRN
ELLX - Luxemburg
Aktualisierung: 21-05-2019 06:20
Stark bewölkt  
Stark bewölkt  
   Wind: WNW 16.7 km/h
Wind: WNW 16.7 km/h
Temperatur: 11°C
Taupunkt: 9°C
Luftfeuchte: 88%
Luftdruck: 1011 hPa
Bewölkt: Stark bewölkt
Sichtbarkeit: More than 10 km
Bewölkung: Stark bewölkt 800 ft
ELLX 210420Z 29009KT 260V330 9999 BKN008 11/09 Q1011 NOSIG
EBOS - Oostende
Aktualisierung: 21-05-2019 06:20
Stark bewölkt  
Stark bewölkt  
   Wind: NNW 16.7 km/h
Wind: NNW 16.7 km/h
Temperatur: 10°C
Gefühlt: 8°C
Taupunkt: 8°C
Luftfeuchte: 88%
Luftdruck: 1015 hPa
Bewölkt: Stark bewölkt
Sichtbarkeit: 7 km
Bewölkung: leicht bewölkt 400 ft,
Stark bewölkt 600 ft
EBOS 210420Z 34009KT 7000 FEW004 BKN006 10/08 Q1015 TEMPO BKN004

Script entwickelt von  Saratoga-weather.org Angepasst für das Template von  Weerstation Leuven

Sie finden meine Wetter-Infos auch auf:

Weather Underground

Germany Weather Network

AWEKAS

WeatherlinkIP

Von mir verwendete Ausrüstung:

Wetterstation
Davis VP2

Wetterprogramm
Weather Display

WetterComputer
RaspberryPi

Anbieter
1und1

Davis VP2

Weather Display

RaspberryPi

1und1